Time;durP1;ratioP1;P1;durP2;ratioP2;P2;SDS_P1;SDS_P2;PMS_P1;PMS_P2;Temp;Humidity;BMP_temperature;BMP_pressure;BME280_temperature;BME280_humidity;BME280_pressure;Samples;Min_cycle;Max_cycle;Signal;HPM_P1;HPM_P2
2023/06/27 00:00:39;;;;;;;2.60;1.13;;;19.50;56.20;;;;;;5031408;28;20053;-64
2023/06/27 00:03:05;;;;;;;2.63;1.38;;;19.40;56.20;;;;;;5031387;28;20509;-63
2023/06/27 00:05:31;;;;;;;3.50;1.20;;;19.30;56.50;;;;;;5032805;28;20120;-63
2023/06/27 00:07:57;;;;;;;2.70;1.20;;;19.30;56.60;;;;;;5027651;28;20156;-64
2023/06/27 00:10:22;;;;;;;5.30;1.40;;;19.30;56.70;;;;;;5033687;28;20524;-63
2023/06/27 00:12:48;;;;;;;4.00;1.23;;;19.20;56.70;;;;;;5024653;28;20156;-64
2023/06/27 00:15:13;;;;;;;1.90;1.08;;;19.10;56.90;;;;;;5029015;28;20084;-64
2023/06/27 00:17:40;;;;;;;2.95;1.30;;;19.10;57.20;;;;;;5033275;28;20033;-64
2023/06/27 00:20:09;;;;;;;2.33;1.08;;;19.00;57.40;;;;;;5027645;28;20120;-62
2023/06/27 00:22:39;;;;;;;2.75;1.15;;;18.90;57.40;;;;;;5029735;28;20041;-63
2023/06/27 00:25:05;;;;;;;4.20;1.25;;;18.80;57.20;;;;;;5029219;28;20060;-64
2023/06/27 00:27:33;;;;;;;4.43;1.15;;;18.80;57.20;;;;;;5031761;28;20083;-63
2023/06/27 00:29:58;;;;;;;2.00;1.13;;;18.70;57.70;;;;;;5026006;28;20286;-64
2023/06/27 00:32:24;;;;;;;3.15;1.50;;;18.60;58.00;;;;;;5026536;28;20556;-64
2023/06/27 00:34:49;;;;;;;2.15;1.27;;;18.60;58.10;;;;;;5024561;28;20045;-64
2023/06/27 00:37:15;;;;;;;3.05;1.20;;;18.60;58.20;;;;;;5031609;28;20037;-64
2023/06/27 00:39:41;;;;;;;3.58;1.08;;;18.50;58.40;;;;;;5026053;28;20046;-63
2023/06/27 00:42:07;;;;;;;1.50;1.15;;;18.50;58.60;;;;;;5026551;28;20040;-64
2023/06/27 00:44:32;;;;;;;1.38;0.98;;;18.40;58.60;;;;;;5024083;28;20120;-64
2023/06/27 00:46:58;;;;;;;3.05;1.30;;;18.40;58.70;;;;;;5026246;28;20026;-64
2023/06/27 00:49:24;;;;;;;1.88;1.13;;;18.30;58.80;;;;;;5024497;28;20433;-63
2023/06/27 00:51:51;;;;;;;2.03;1.10;;;18.30;59.00;;;;;;5026598;28;20404;-64
2023/06/27 00:54:17;;;;;;;2.53;1.35;;;18.30;59.10;;;;;;5033842;28;20331;-63
2023/06/27 00:56:44;;;;;;;3.42;1.33;;;18.30;59.20;;;;;;5030925;28;20029;-64
2023/06/27 00:59:10;;;;;;;3.47;1.20;;;18.30;59.10;;;;;;5027331;28;20028;-64
2023/06/27 01:01:37;;;;;;;2.92;1.35;;;18.30;59.10;;;;;;5020127;28;20030;-64
2023/06/27 01:04:03;;;;;;;2.28;1.23;;;18.30;59.30;;;;;;5026492;28;20041;-64
2023/06/27 01:06:38;;;;;;;3.50;1.10;;;18.30;59.10;;;;;;5025752;28;20268;-64
2023/06/27 01:09:13;;;;;;;2.28;1.20;;;18.30;59.30;;;;;;5027803;28;20033;-64
2023/06/27 01:11:56;;;;;;;1.85;1.23;;;18.30;59.70;;;;;;5023261;28;20033;-64
2023/06/27 01:14:25;;;;;;;2.72;1.30;;;18.30;60.10;;;;;;5024347;28;20091;-64
2023/06/27 01:16:51;;;;;;;6.00;1.70;;;18.30;59.40;;;;;;5026860;28;20127;-63
2023/06/27 01:19:21;;;;;;;5.50;1.40;;;18.30;59.70;;;;;;5027677;28;20728;-64
2023/06/27 01:21:52;;;;;;;3.20;1.38;;;18.30;59.90;;;;;;5029971;28;20029;-63
2023/06/27 01:24:18;;;;;;;4.10;1.23;;;18.30;59.30;;;;;;5030474;28;20107;-64
2023/06/27 01:26:43;;;;;;;3.22;1.15;;;18.30;59.00;;;;;;5028455;28;20481;-64
2023/06/27 01:29:11;;;;;;;2.95;1.17;;;18.20;59.00;;;;;;5027536;28;20408;-64
2023/06/27 01:31:45;;;;;;;4.10;1.25;;;18.30;59.20;;;;;;5027548;28;20046;-63
2023/06/27 01:34:23;;;;;;;3.85;1.33;;;18.30;59.20;;;;;;5027355;28;20039;-64
2023/06/27 01:36:53;;;;;;;7.93;1.73;;;18.30;59.60;;;;;;5028490;28;20578;-64
2023/06/27 01:39:23;;;;;;;3.75;1.75;;;18.30;59.40;;;;;;5027384;28;20040;-63
2023/06/27 01:41:53;;;;;;;2.88;1.55;;;18.30;59.40;;;;;;5026368;28;20052;-63
2023/06/27 01:44:20;;;;;;;2.55;1.45;;;18.30;59.30;;;;;;5027576;28;21071;-63
2023/06/27 01:46:48;;;;;;;3.15;1.33;;;18.30;59.30;;;;;;5024592;28;20053;-63
2023/06/27 01:49:15;;;;;;;4.18;1.60;;;18.30;59.20;;;;;;5026473;28;20038;-64
2023/06/27 01:51:41;;;;;;;2.03;1.10;;;18.40;59.20;;;;;;5030735;28;20179;-63
2023/06/27 01:54:07;;;;;;;2.65;1.20;;;18.30;59.20;;;;;;5029992;28;20037;-63
2023/06/27 01:56:32;;;;;;;2.35;1.20;;;18.40;59.10;;;;;;5027370;28;20044;-64
2023/06/27 01:58:58;;;;;;;3.15;1.08;;;18.30;59.40;;;;;;5023687;28;20508;-63
2023/06/27 02:01:24;;;;;;;4.47;1.40;;;18.30;59.20;;;;;;5025256;28;20080;-64
2023/06/27 02:03:49;;;;;;;3.00;1.50;;;18.40;59.30;;;;;;5026739;28;20051;-63
2023/06/27 02:06:15;;;;;;;2.13;1.20;;;18.40;59.20;;;;;;5032389;28;20037;-64
2023/06/27 02:08:41;;;;;;;8.02;1.42;;;18.30;59.40;;;;;;5025729;28;20041;-64
2023/06/27 02:11:07;;;;;;;2.63;1.58;;;18.30;59.30;;;;;;5021961;28;20045;-64
2023/06/27 02:13:37;;;;;;;3.17;1.27;;;18.40;59.20;;;;;;5027526;28;20086;-63
2023/06/27 02:16:02;;;;;;;2.88;1.38;;;18.10;59.00;;;;;;5025022;28;20500;-63
2023/06/27 02:18:28;;;;;;;2.40;1.45;;;18.30;59.00;;;;;;5027787;28;20109;-63
2023/06/27 02:20:53;;;;;;;3.70;1.42;;;18.20;59.00;;;;;;5026398;28;20029;-64
2023/06/27 02:23:19;;;;;;;2.92;1.30;;;18.20;59.30;;;;;;5033182;28;20067;-64
2023/06/27 02:25:45;;;;;;;4.72;1.70;;;18.20;59.30;;;;;;5031984;28;20498;-64
2023/06/27 02:28:10;;;;;;;2.75;1.27;;;18.10;59.40;;;;;;5035056;28;20040;-64
2023/06/27 02:30:36;;;;;;;4.75;1.40;;;18.10;59.40;;;;;;5035655;28;20037;-64
2023/06/27 02:33:01;;;;;;;2.85;1.33;;;18.10;59.40;;;;;;5037636;28;20112;-63
2023/06/27 02:35:27;;;;;;;2.67;1.45;;;18.00;59.50;;;;;;5039565;28;20063;-64
2023/06/27 02:37:53;;;;;;;2.45;1.50;;;18.00;59.60;;;;;;5038671;28;20515;-63
2023/06/27 02:40:18;;;;;;;3.17;1.33;;;18.00;59.70;;;;;;5037773;28;20441;-63
2023/06/27 02:42:44;;;;;;;2.47;1.50;;;17.90;59.90;;;;;;5032512;28;20124;-63
2023/06/27 02:45:10;;;;;;;4.97;1.60;;;17.90;60.10;;;;;;5035688;28;20044;-64
2023/06/27 02:47:35;;;;;;;1.95;1.35;;;17.90;60.30;;;;;;5031822;28;20401;-64
2023/06/27 02:50:02;;;;;;;3.80;1.70;;;17.90;60.50;;;;;;5026660;28;20047;-64
2023/06/27 02:52:27;;;;;;;3.53;1.50;;;17.80;60.20;;;;;;5025113;28;21842;-64
2023/06/27 02:54:53;;;;;;;2.45;1.50;;;17.80;60.30;;;;;;5032357;28;20050;-64
2023/06/27 02:57:18;;;;;;;3.20;1.50;;;17.80;60.60;;;;;;5035447;28;20092;-66
2023/06/27 02:59:44;;;;;;;2.03;1.35;;;17.80;60.80;;;;;;5039526;28;20051;-63
2023/06/27 03:02:09;;;;;;;3.55;1.38;;;17.80;60.90;;;;;;5030969;28;20116;-63
2023/06/27 03:04:36;;;;;;;4.88;1.50;;;17.80;61.10;;;;;;5025767;28;20509;-63
2023/06/27 03:07:02;;;;;;;2.83;1.50;;;17.80;61.10;;;;;;5029436;28;20040;-64
2023/06/27 03:09:27;;;;;;;2.78;1.42;;;17.80;61.00;;;;;;5030649;28;20029;-63
2023/06/27 03:11:53;;;;;;;2.85;1.70;;;17.80;60.80;;;;;;5030280;28;20070;-63
2023/06/27 03:14:19;;;;;;;2.67;1.40;;;17.80;60.80;;;;;;5025355;28;20055;-64
2023/06/27 03:16:45;;;;;;;3.72;1.85;;;17.70;60.90;;;;;;5029519;28;20048;-63
2023/06/27 03:19:11;;;;;;;5.40;1.70;;;17.70;61.00;;;;;;5028978;28;20036;-63
2023/06/27 03:21:36;;;;;;;4.15;1.60;;;17.60;61.10;;;;;;5029251;28;20119;-63
2023/06/27 03:24:02;;;;;;;3.60;1.55;;;17.60;61.30;;;;;;5031826;28;20064;-63
2023/06/27 03:26:28;;;;;;;2.97;1.60;;;17.50;61.30;;;;;;5029429;28;20566;-63
2023/06/27 03:28:56;;;;;;;1.95;1.70;;;17.50;61.30;;;;;;5029645;28;20056;-64
2023/06/27 03:31:22;;;;;;;5.45;1.77;;;17.40;61.50;;;;;;5026853;28;20569;-64
2023/06/27 03:33:48;;;;;;;4.53;1.70;;;17.40;62.60;;;;;;5028046;28;20029;-63
2023/06/27 03:36:13;;;;;;;2.55;1.50;;;17.30;61.90;;;;;;5029033;28;20037;-63
2023/06/27 03:38:39;;;;;;;3.63;1.50;;;17.30;62.10;;;;;;5025406;28;20640;-63
2023/06/27 03:41:05;;;;;;;2.50;1.55;;;17.20;62.10;;;;;;5029707;28;20459;-62
2023/06/27 03:43:30;;;;;;;3.53;1.40;;;17.20;62.40;;;;;;5028211;28;20037;-63
2023/06/27 03:45:56;;;;;;;2.25;1.63;;;17.30;62.60;;;;;;5026494;28;20042;-64
2023/06/27 03:48:21;;;;;;;2.75;1.65;;;17.30;62.60;;;;;;5025830;28;20132;-63
2023/06/27 03:50:47;;;;;;;2.78;1.60;;;17.30;62.60;;;;;;5030625;28;20042;-64
2023/06/27 03:53:12;;;;;;;4.63;1.60;;;17.30;62.50;;;;;;5030934;28;20616;-63
2023/06/27 03:55:40;;;;;;;3.55;1.60;;;17.30;62.60;;;;;;5030398;28;20038;-64
2023/06/27 03:58:06;;;;;;;3.63;1.52;;;17.30;62.80;;;;;;5027019;28;20030;-63
2023/06/27 04:00:32;;;;;;;2.78;1.40;;;17.30;62.90;;;;;;5031801;28;20051;-64
2023/06/27 04:02:58;;;;;;;5.15;1.27;;;17.30;63.00;;;;;;5024875;28;20498;-64
2023/06/27 04:05:23;;;;;;;2.22;1.40;;;17.20;63.10;;;;;;5028747;28;20299;-63
2023/06/27 04:07:49;;;;;;;1.98;1.30;;;17.20;63.20;;;;;;5031657;28;20033;-63
2023/06/27 04:10:15;;;;;;;3.30;1.30;;;17.30;63.40;;;;;;5026869;28;20341;-61
2023/06/27 04:12:41;;;;;;;2.70;1.58;;;17.30;63.40;;;;;;5026080;28;20037;-62
2023/06/27 04:15:07;;;;;;;1.48;1.20;;;17.40;63.80;;;;;;5031410;28;20033;-64
2023/06/27 04:17:33;;;;;;;2.03;1.08;;;17.40;63.70;;;;;;5027303;28;20044;-63
2023/06/27 04:19:58;;;;;;;3.33;1.42;;;17.50;63.70;;;;;;5029396;28;20037;-63
2023/06/27 04:22:24;;;;;;;2.08;1.35;;;17.60;63.70;;;;;;5032148;28;20520;-64
2023/06/27 04:24:49;;;;;;;2.22;1.00;;;17.60;63.80;;;;;;5025133;28;20134;-63
2023/06/27 04:27:15;;;;;;;2.83;1.30;;;17.70;63.70;;;;;;5024494;28;20037;-63
2023/06/27 04:29:40;;;;;;;1.77;1.20;;;17.80;63.40;;;;;;5033145;28;20033;-63
2023/06/27 04:32:07;;;;;;;1.98;1.35;;;17.90;63.20;;;;;;5034864;28;20449;-63
2023/06/27 04:34:35;;;;;;;4.63;1.40;;;18.00;62.90;;;;;;5032608;28;20087;-63
2023/06/27 04:37:02;;;;;;;4.50;1.40;;;18.00;62.90;;;;;;5033464;28;20120;-63
2023/06/27 04:39:28;;;;;;;3.05;1.40;;;18.10;62.60;;;;;;5034927;28;20132;-63
2023/06/27 04:41:53;;;;;;;4.50;1.85;;;18.10;62.40;;;;;;5032604;28;20108;-63
2023/06/27 04:44:20;;;;;;;2.95;1.67;;;18.10;62.10;;;;;;5033902;28;20045;-63
2023/06/27 04:46:46;;;;;;;3.67;1.55;;;18.10;62.00;;;;;;5031826;28;20544;-62
2023/06/27 04:49:12;;;;;;;5.30;1.55;;;18.10;62.00;;;;;;5035017;28;20033;-63
2023/06/27 04:51:37;;;;;;;2.47;1.20;;;18.10;62.00;;;;;;5033973;28;20060;-63
2023/06/27 04:54:03;;;;;;;2.20;1.48;;;18.10;62.30;;;;;;5033878;28;20056;-64
2023/06/27 04:56:28;;;;;;;2.17;1.30;;;18.00;62.20;;;;;;5033338;28;20044;-63
2023/06/27 04:58:54;;;;;;;4.15;1.50;;;18.00;62.50;;;;;;5033772;28;20068;-63
2023/06/27 05:01:20;;;;;;;3.95;1.40;;;18.00;62.70;;;;;;5034344;28;20037;-63
2023/06/27 05:03:46;;;;;;;2.47;1.27;;;18.10;62.70;;;;;;5033392;28;20037;-63
2023/06/27 05:06:11;;;;;;;2.42;1.40;;;18.20;62.60;;;;;;5034514;28;20052;-63
2023/06/27 05:08:37;;;;;;;4.10;1.55;;;18.20;62.60;;;;;;5032291;28;20041;-63
2023/06/27 05:11:04;;;;;;;4.00;1.60;;;18.20;62.40;;;;;;5027534;28;20034;-63
2023/06/27 05:13:29;;;;;;;7.25;1.63;;;18.30;62.10;;;;;;5032670;28;20038;-63
2023/06/27 05:15:55;;;;;;;3.55;1.60;;;18.40;61.90;;;;;;5032896;28;20022;-63
2023/06/27 05:18:25;;;;;;;10.13;2.00;;;18.40;61.90;;;;;;5031886;28;20038;-63
2023/06/27 05:20:50;;;;;;;4.95;1.55;;;18.40;62.10;;;;;;5032494;28;20505;-63
2023/06/27 05:23:16;;;;;;;6.20;1.70;;;18.40;61.80;;;;;;5032622;28;20083;-64
2023/06/27 05:25:41;;;;;;;4.13;1.45;;;18.40;61.70;;;;;;5032962;28;20136;-63
2023/06/27 05:28:08;;;;;;;2.20;1.23;;;18.50;62.50;;;;;;5032244;28;20067;-63
2023/06/27 05:30:33;;;;;;;3.47;1.35;;;18.50;61.40;;;;;;5032745;28;20056;-63
2023/06/27 05:32:59;;;;;;;2.55;1.63;;;18.50;61.20;;;;;;5033300;28;20244;-63
2023/06/27 05:35:24;;;;;;;3.55;1.65;;;18.50;61.20;;;;;;5034335;28;20037;-63
2023/06/27 05:37:50;;;;;;;4.38;1.60;;;18.50;61.30;;;;;;5031646;28;20494;-63
2023/06/27 05:40:16;;;;;;;4.57;1.67;;;18.50;61.20;;;;;;5032342;28;20033;-63
2023/06/27 05:42:42;;;;;;;2.85;1.40;;;18.50;61.00;;;;;;5032164;28;20041;-63
2023/06/27 05:45:08;;;;;;;2.28;1.45;;;18.60;61.10;;;;;;5034597;28;20071;-63
2023/06/27 05:47:34;;;;;;;2.20;1.50;;;18.60;61.20;;;;;;5031305;28;20398;-64
2023/06/27 05:49:59;;;;;;;2.80;1.40;;;18.60;60.90;;;;;;5032333;28;20059;-62
2023/06/27 05:52:25;;;;;;;2.40;1.60;;;18.60;60.90;;;;;;5033366;28;20033;-63
2023/06/27 05:54:51;;;;;;;4.18;1.48;;;18.70;61.20;;;;;;5032499;28;20033;-63
2023/06/27 05:57:18;;;;;;;3.03;1.50;;;18.70;61.10;;;;;;5037086;28;20051;-63
2023/06/27 05:59:43;;;;;;;2.72;1.50;;;18.80;61.00;;;;;;5035920;28;20509;-64
2023/06/27 06:02:09;;;;;;;3.63;1.48;;;18.90;60.80;;;;;;5036221;28;20045;-63
2023/06/27 06:04:34;;;;;;;2.63;1.40;;;19.00;60.60;;;;;;5036915;28;20091;-63
2023/06/27 06:07:00;;;;;;;4.15;1.33;;;19.00;60.30;;;;;;5035948;28;20128;-63
2023/06/27 06:09:26;;;;;;;3.13;1.60;;;19.10;60.10;;;;;;5035611;28;20055;-63
2023/06/27 06:11:52;;;;;;;1.77;1.40;;;19.10;60.00;;;;;;5034518;28;20036;-62
2023/06/27 06:14:17;;;;;;;3.83;1.65;;;19.20;59.80;;;;;;5036165;28;20485;-63
2023/06/27 06:16:43;;;;;;;3.60;1.50;;;19.20;59.70;;;;;;5035128;28;20037;-63
2023/06/27 06:19:09;;;;;;;4.00;1.98;;;19.30;60.00;;;;;;5037332;28;20038;-64
2023/06/27 06:21:34;;;;;;;4.50;1.67;;;19.30;59.80;;;;;;5038102;28;20115;-63
2023/06/27 06:24:01;;;;;;;3.47;1.52;;;19.30;59.90;;;;;;5037159;28;20033;-64
2023/06/27 06:26:27;;;;;;;2.75;1.60;;;19.30;60.10;;;;;;5034862;28;20060;-63
2023/06/27 06:28:52;;;;;;;1.70;1.38;;;19.40;60.30;;;;;;5039476;28;20467;-63
2023/06/27 06:31:19;;;;;;;5.10;1.60;;;19.40;60.30;;;;;;5035136;28;20038;-63
2023/06/27 06:33:45;;;;;;;3.28;1.50;;;19.50;60.20;;;;;;5038975;28;20043;-64
2023/06/27 06:36:12;;;;;;;3.10;1.45;;;19.50;59.80;;;;;;5039544;28;20034;-63
2023/06/27 06:38:38;;;;;;;2.35;1.63;;;19.60;59.70;;;;;;5038315;28;20437;-64
2023/06/27 06:41:04;;;;;;;2.72;1.50;;;19.70;59.50;;;;;;5039601;28;20077;-63
2023/06/27 06:43:30;;;;;;;2.92;1.90;;;19.80;59.60;;;;;;5038951;28;20057;-63
2023/06/27 06:45:55;;;;;;;4.35;1.67;;;19.80;59.30;;;;;;5036265;28;20033;-63
2023/06/27 06:48:22;;;;;;;7.18;2.20;;;19.80;59.20;;;;;;5035709;28;20087;-62
2023/06/27 06:50:50;;;;;;;3.20;1.65;;;19.90;59.20;;;;;;5035007;28;20095;-64
2023/06/27 06:53:16;;;;;;;6.68;1.67;;;19.90;59.20;;;;;;5035563;28;20527;-63
2023/06/27 06:55:42;;;;;;;3.08;1.40;;;19.90;59.20;;;;;;5036009;28;20559;-63
2023/06/27 06:58:07;;;;;;;2.58;1.35;;;20.00;58.90;;;;;;5036897;28;20120;-64
2023/06/27 07:00:33;;;;;;;2.15;1.35;;;20.00;59.00;;;;;;5034265;28;20393;-63
2023/06/27 07:02:58;;;;;;;2.47;1.58;;;20.00;59.10;;;;;;5035393;28;20025;-63
2023/06/27 07:05:24;;;;;;;3.58;1.63;;;20.00;59.30;;;;;;5036206;28;20420;-64
2023/06/27 07:07:50;;;;;;;4.50;1.80;;;20.10;59.50;;;;;;5032848;28;20037;-62
2023/06/27 07:10:16;;;;;;;6.25;1.52;;;20.20;59.20;;;;;;5033625;28;20030;-63
2023/06/27 07:12:41;;;;;;;4.80;1.70;;;20.30;59.10;;;;;;5034014;28;20272;-62
2023/06/27 07:15:08;;;;;;;3.47;1.58;;;20.40;59.10;;;;;;5034077;28;20059;-64
2023/06/27 07:17:34;;;;;;;4.35;1.60;;;20.40;58.70;;;;;;5035035;28;20349;-62
2023/06/27 07:20:00;;;;;;;3.35;1.60;;;20.50;58.40;;;;;;5035671;28;20092;-64
2023/06/27 07:22:26;;;;;;;5.45;2.10;;;20.60;58.50;;;;;;5033003;28;20509;-63
2023/06/27 07:24:51;;;;;;;3.67;1.70;;;20.60;58.20;;;;;;5035186;28;20059;-63
2023/06/27 07:27:17;;;;;;;5.18;1.88;;;20.70;58.00;;;;;;5036336;28;20132;-63
2023/06/27 07:29:43;;;;;;;5.72;1.80;;;20.70;57.40;;;;;;5036737;28;20037;-63
2023/06/27 07:32:10;;;;;;;3.97;1.73;;;20.80;57.50;;;;;;5035116;28;20041;-64
2023/06/27 07:34:36;;;;;;;3.78;1.92;;;20.90;56.50;;;;;;5032889;28;20037;-63
2023/06/27 07:37:02;;;;;;;2.63;1.60;;;20.90;56.20;;;;;;5035958;28;20102;-63
2023/06/27 07:39:28;;;;;;;3.33;1.73;;;21.00;56.00;;;;;;5036518;28;20029;-63
2023/06/27 07:41:54;;;;;;;3.20;1.75;;;21.00;56.50;;;;;;5036359;28;20489;-63
2023/06/27 07:44:20;;;;;;;4.95;1.65;;;21.00;56.00;;;;;;5035555;28;20052;-63
2023/06/27 07:46:45;;;;;;;2.65;1.58;;;21.10;56.40;;;;;;5035801;28;20037;-63
2023/06/27 07:49:11;;;;;;;3.13;1.55;;;21.10;55.90;;;;;;5035658;28;20572;-63
2023/06/27 07:51:36;;;;;;;5.15;1.48;;;21.20;55.40;;;;;;5033951;28;20041;-64
2023/06/27 07:54:03;;;;;;;4.97;1.60;;;21.30;55.70;;;;;;5035371;28;20041;-63
2023/06/27 07:56:29;;;;;;;3.47;1.70;;;21.30;55.60;;;;;;5034070;28;20068;-63
2023/06/27 07:58:54;;;;;;;3.17;1.60;;;21.40;55.30;;;;;;5035118;28;20063;-63
2023/06/27 08:01:20;;;;;;;3.10;1.58;;;21.50;55.20;;;;;;5028846;28;20029;-64
2023/06/27 08:03:46;;;;;;;2.10;1.35;;;21.60;54.80;;;;;;5031623;28;20038;-63
2023/06/27 08:06:12;;;;;;;5.80;1.77;;;21.60;54.70;;;;;;5035970;28;20048;-63
2023/06/27 08:08:37;;;;;;;2.10;1.27;;;21.70;54.50;;;;;;5035681;28;20044;-63
2023/06/27 08:11:03;;;;;;;4.82;1.50;;;21.70;54.70;;;;;;5034273;28;20037;-63
2023/06/27 08:13:29;;;;;;;3.53;1.42;;;21.80;55.50;;;;;;5036688;28;20061;-63
2023/06/27 08:15:54;;;;;;;4.15;1.50;;;21.90;54.70;;;;;;5033525;28;20118;-64
2023/06/27 08:18:20;;;;;;;3.95;1.70;;;22.00;54.50;;;;;;5034560;28;20172;-64
2023/06/27 08:20:46;;;;;;;4.05;1.70;;;22.10;53.20;;;;;;5035373;28;20040;-63
2023/06/27 08:23:11;;;;;;;2.97;1.65;;;22.20;53.20;;;;;;5034780;28;20040;-63
2023/06/27 08:25:37;;;;;;;2.33;1.50;;;22.20;53.30;;;;;;5037979;28;20599;-63
2023/06/27 08:28:03;;;;;;;6.93;1.52;;;22.30;52.80;;;;;;5037686;28;20037;-62
2023/06/27 08:30:29;;;;;;;3.50;1.58;;;22.30;52.80;;;;;;5037143;28;20131;-63
2023/06/27 08:32:56;;;;;;;2.35;1.35;;;22.30;52.60;;;;;;5036273;28;20032;-63
2023/06/27 08:35:21;;;;;;;3.78;1.50;;;22.40;52.80;;;;;;5035557;28;20049;-63
2023/06/27 08:37:47;;;;;;;3.95;1.60;;;22.40;52.70;;;;;;5033296;28;20673;-62
2023/06/27 08:40:22;;;;;;;2.67;1.60;;;22.50;52.30;;;;;;5034860;28;20037;-63
2023/06/27 08:42:47;;;;;;;;;;;22.50;52.10;;;;;;5035970;28;20040;-63
2023/06/27 08:45:13;;;;;;;4.10;1.60;;;22.60;51.60;;;;;;5034734;28;19913;-63
2023/06/27 08:47:43;;;;;;;4.78;1.55;;;22.70;52.30;;;;;;5035198;28;20091;-63
2023/06/27 08:50:15;;;;;;;6.35;1.58;;;22.70;52.20;;;;;;5034936;28;20041;-63
2023/06/27 08:52:47;;;;;;;3.40;1.50;;;22.80;51.40;;;;;;5034725;28;20386;-63
2023/06/27 08:55:42;;;;;;;4.78;1.65;;;22.90;51.50;;;;;;5036803;28;20051;-63
2023/06/27 08:58:15;;;;;;;3.55;1.55;;;22.90;50.80;;;;;;5016909;28;20052;-63
2023/06/27 09:00:42;;;;;;;2.45;1.40;;;23.00;51.50;;;;;;5037055;28;20192;-63
2023/06/27 09:03:08;;;;;;;2.42;1.38;;;23.10;51.40;;;;;;5037402;28;20536;-63
2023/06/27 09:05:34;;;;;;;4.72;1.35;;;23.20;51.50;;;;;;5036134;28;20177;-63
2023/06/27 09:07:59;;;;;;;5.03;1.55;;;23.40;51.80;;;;;;5035121;28;20048;-63
2023/06/27 09:10:26;;;;;;;5.03;1.30;;;23.50;51.50;;;;;;5030894;28;20038;-63
2023/06/27 09:12:56;;;;;;;3.28;1.58;;;23.60;50.40;;;;;;5033276;28;20030;-63
2023/06/27 09:15:22;;;;;;;2.80;1.48;;;23.70;49.80;;;;;;5034414;28;20633;-63
2023/06/27 09:17:49;;;;;;;2.65;1.60;;;23.80;50.30;;;;;;5033324;28;20037;-63
2023/06/27 09:20:17;;;;;;;3.28;1.33;;;23.90;50.20;;;;;;5034639;28;20041;-63
2023/06/27 09:22:43;;;;;;;2.58;1.50;;;24.00;49.70;;;;;;5032454;28;20155;-63
2023/06/27 09:25:18;;;;;;;2.83;1.23;;;24.10;50.00;;;;;;5035562;28;20250;-64
2023/06/27 09:27:43;;;;;;;4.65;1.60;;;24.30;49.20;;;;;;5030833;28;20029;-63
2023/06/27 09:30:11;;;;;;;2.78;1.52;;;24.40;49.10;;;;;;5033141;28;20056;-63
2023/06/27 09:32:58;;;;;;;3.63;1.23;;;24.40;48.80;;;;;;5034121;28;20041;-63
2023/06/27 09:35:26;;;;;;;5.55;1.27;;;24.50;48.50;;;;;;5034464;28;20596;-63
2023/06/27 09:37:52;;;;;;;4.47;1.70;;;24.50;48.90;;;;;;5033577;28;20500;-63
2023/06/27 09:40:18;;;;;;;4.57;1.60;;;24.50;48.90;;;;;;5034433;28;20041;-62
2023/06/27 09:42:49;;;;;;;3.55;1.45;;;24.50;48.60;;;;;;5034033;28;20037;-64
2023/06/27 09:45:15;;;;;;;4.43;1.70;;;24.60;48.00;;;;;;5035837;28;20041;-64
2023/06/27 09:47:41;;;;;;;2.30;1.40;;;24.70;48.50;;;;;;5031086;28;20029;-64
2023/06/27 09:50:07;;;;;;;2.25;1.30;;;24.70;48.40;;;;;;5034299;28;20613;-64
2023/06/27 09:52:33;;;;;;;4.20;1.67;;;24.80;48.00;;;;;;5032268;28;20029;-63
2023/06/27 09:54:59;;;;;;;3.67;1.30;;;24.90;47.40;;;;;;5035293;28;20041;-63
2023/06/27 09:57:26;;;;;;;2.00;1.10;;;25.00;46.90;;;;;;5033733;28;21716;-64
2023/06/27 10:00:00;;;;;;;2.00;1.40;;;25.00;46.40;;;;;;5034028;28;20121;-63
2023/06/27 10:02:29;;;;;;;2.50;1.30;;;25.00;45.60;;;;;;5033794;28;20037;-63
2023/06/27 10:04:54;;;;;;;2.53;1.60;;;25.10;45.50;;;;;;5032122;28;20064;-63
2023/06/27 10:07:20;;;;;;;5.00;1.17;;;25.10;45.90;;;;;;5034398;28;20390;-63
2023/06/27 10:09:46;;;;;;;1.50;1.23;;;25.10;45.90;;;;;;5031976;28;20044;-64
2023/06/27 10:12:14;;;;;;;2.72;1.60;;;25.10;45.20;;;;;;5032056;28;20033;-63
2023/06/27 10:14:43;;;;;;;1.75;1.23;;;25.10;45.00;;;;;;5031723;28;20049;-64
2023/06/27 10:17:10;;;;;;;3.53;1.35;;;25.10;44.50;;;;;;5033064;28;20039;-62
2023/06/27 10:19:37;;;;;;;2.53;1.33;;;25.00;44.30;;;;;;5034785;28;20049;-63
2023/06/27 10:22:10;;;;;;;3.38;1.40;;;25.00;44.80;;;;;;5032437;28;20132;-64
2023/06/27 10:24:39;;;;;;;2.03;1.27;;;24.90;44.30;;;;;;5031261;28;20120;-63
2023/06/27 10:27:07;;;;;;;2.55;1.20;;;24.90;45.20;;;;;;5034617;28;20041;-63
2023/06/27 10:29:32;;;;;;;3.25;1.40;;;24.80;45.90;;;;;;5034900;28;20071;-63
2023/06/27 10:31:58;;;;;;;3.72;1.40;;;24.90;45.80;;;;;;5032234;28;20045;-63
2023/06/27 10:34:24;;;;;;;3.58;1.15;;;24.90;45.70;;;;;;5034532;28;20037;-63
2023/06/27 10:36:51;;;;;;;5.68;1.30;;;25.00;46.00;;;;;;5035337;28;20033;-63
2023/06/27 10:39:28;;;;;;;4.70;1.30;;;25.00;45.20;;;;;;5035924;28;20028;-64
2023/06/27 10:42:03;;;;;;;2.75;1.35;;;25.00;44.90;;;;;;5036212;28;20037;-63
2023/06/27 10:44:30;;;;;;;3.85;1.50;;;25.00;44.60;;;;;;5039311;28;20034;-64
2023/06/27 10:47:20;;;;;;;2.15;1.15;;;25.10;45.00;;;;;;5037584;28;20035;-63
2023/06/27 10:49:47;;;;;;;2.55;1.20;;;25.20;43.70;;;;;;5036076;28;20143;-64
2023/06/27 10:52:23;;;;;;;2.80;1.42;;;25.20;44.10;;;;;;5037814;28;20190;-64
2023/06/27 10:55:14;;;;;;;1.48;1.20;;;25.20;44.00;;;;;;5036040;28;20048;-63
2023/06/27 10:57:48;;;;;;;1.45;1.27;;;25.30;44.00;;;;;;5037087;28;20041;-63
2023/06/27 11:00:32;;;;;;;2.17;1.15;;;25.30;44.50;;;;;;5036165;28;20513;-64
2023/06/27 11:03:02;;;;;;;4.20;1.40;;;25.30;44.00;;;;;;5037001;28;20120;-63
2023/06/27 11:05:49;;;;;;;2.92;1.40;;;25.40;43.80;;;;;;5035633;28;20045;-64
2023/06/27 11:08:17;;;;;;;2.72;1.20;;;25.40;43.40;;;;;;5037180;28;20034;-64
2023/06/27 11:11:04;;;;;;;3.78;1.40;;;25.40;44.00;;;;;;5032144;28;20052;-63
2023/06/27 11:13:33;;;;;;;3.08;1.35;;;25.40;43.20;;;;;;5036421;28;20068;-63
2023/06/27 11:15:59;;;;;;;3.13;1.23;;;25.40;43.50;;;;;;5037312;28;20047;-64
2023/06/27 11:18:25;;;;;;;1.75;1.17;;;25.40;43.50;;;;;;5037024;28;20108;-63
2023/06/27 11:20:51;;;;;;;2.70;1.33;;;25.40;43.00;;;;;;5036270;28;20025;-63
2023/06/27 11:23:20;;;;;;;2.08;1.20;;;25.50;43.50;;;;;;5034853;28;20132;-62
2023/06/27 11:25:46;;;;;;;5.50;1.30;;;25.50;43.50;;;;;;5037459;28;20412;-63
2023/06/27 11:28:20;;;;;;;1.85;1.05;;;25.50;43.40;;;;;;5039323;28;20033;-63
2023/06/27 11:30:46;;;;;;;3.55;1.60;;;25.60;43.20;;;;;;5038935;28;20036;-63
2023/06/27 11:33:15;;;;;;;2.42;1.30;;;25.60;42.90;;;;;;5040050;28;20049;-64
2023/06/27 11:35:41;;;;;;;3.83;1.17;;;25.60;42.90;;;;;;5038754;28;20037;-64
2023/06/27 11:38:08;;;;;;;2.33;1.20;;;25.60;43.10;;;;;;5039555;28;20040;-63
2023/06/27 11:40:34;;;;;;;3.72;1.50;;;25.60;43.50;;;;;;5036179;28;20029;-62
2023/06/27 11:43:07;;;;;;;1.48;1.17;;;25.60;43.30;;;;;;5036293;28;20025;-63
2023/06/27 11:45:33;;;;;;;2.63;1.40;;;25.70;43.20;;;;;;5035541;28;20528;-64
2023/06/27 11:48:00;;;;;;;3.53;1.40;;;25.70;43.00;;;;;;5036270;28;20665;-63
2023/06/27 11:50:27;;;;;;;2.85;1.38;;;25.70;42.70;;;;;;5036340;28;20485;-63
2023/06/27 11:52:55;;;;;;;2.15;1.17;;;25.80;42.80;;;;;;5034292;28;20163;-63
2023/06/27 11:55:21;;;;;;;4.22;1.45;;;25.80;42.60;;;;;;5034403;28;20155;-63
2023/06/27 11:57:48;;;;;;;1.92;1.20;;;25.80;42.50;;;;;;5036784;28;20048;-63
2023/06/27 12:00:15;;;;;;;2.25;1.40;;;25.80;42.50;;;;;;5034144;28;20026;-63
2023/06/27 12:02:41;;;;;;;1.95;1.40;;;25.80;42.90;;;;;;5036030;28;20531;-64
2023/06/27 12:05:16;;;;;;;2.42;1.45;;;25.90;42.60;;;;;;5035838;28;20049;-64
2023/06/27 12:08:15;;;;;;;2.28;1.10;;;25.90;42.90;;;;;;5034274;28;20558;-64
2023/06/27 12:10:56;;;;;;;3.25;1.52;;;25.90;42.80;;;;;;5029292;28;20049;-63
2023/06/27 12:13:37;;;;;;;1.90;1.20;;;25.90;41.70;;;;;;5035101;28;20064;-64
2023/06/27 12:16:04;;;;;;;1.80;1.15;;;25.90;42.40;;;;;;5032581;28;20080;-63
2023/06/27 12:18:30;;;;;;;1.92;1.35;;;25.90;42.50;;;;;;5033102;28;20056;-64
2023/06/27 12:20:57;;;;;;;2.85;1.60;;;25.80;41.60;;;;;;5036578;28;20037;-64
2023/06/27 12:23:27;;;;;;;2.75;1.40;;;25.70;41.80;;;;;;5034844;28;20087;-64
2023/06/27 12:25:53;;;;;;;3.72;1.45;;;25.70;41.60;;;;;;5034544;28;20117;-64
2023/06/27 12:28:21;;;;;;;1.38;1.08;;;25.50;41.80;;;;;;5033792;28;20116;-63
2023/06/27 12:30:47;;;;;;;3.20;1.20;;;25.50;42.00;;;;;;5033275;28;20037;-63
2023/06/27 12:33:13;;;;;;;5.43;1.48;;;25.50;41.90;;;;;;5035493;28;20029;-63
2023/06/27 12:35:39;;;;;;;1.52;1.10;;;25.50;41.90;;;;;;5035038;28;20500;-63
2023/06/27 12:38:05;;;;;;;1.88;1.40;;;25.50;42.00;;;;;;5034831;28;20079;-62
2023/06/27 12:40:31;;;;;;;2.10;1.42;;;25.50;42.00;;;;;;5034826;28;20041;-63
2023/06/27 12:42:57;;;;;;;1.95;1.20;;;25.50;42.20;;;;;;5033837;28;20037;-64
2023/06/27 12:45:23;;;;;;;1.65;1.10;;;25.50;41.00;;;;;;5034674;28;20149;-64
2023/06/27 12:47:49;;;;;;;1.40;1.30;;;25.50;42.20;;;;;;5034571;28;20123;-63